sensor_id;sensor_type;location;lat;lon;timestamp;P1;durP1;ratioP1;P2;durP2;ratioP2
19923;SDS011;10124;53.068;18.224;2022-11-27T00:01:30;128.00;;;59.40;;
19923;SDS011;10124;53.068;18.224;2022-11-27T00:04:00;140.93;;;63.87;;
19923;SDS011;10124;53.068;18.224;2022-11-27T00:06:29;142.27;;;62.07;;
19923;SDS011;10124;53.068;18.224;2022-11-27T00:08:58;133.80;;;62.00;;
19923;SDS011;10124;53.068;18.224;2022-11-27T00:11:28;142.83;;;61.80;;
19923;SDS011;10124;53.068;18.224;2022-11-27T00:13:57;151.70;;;69.00;;
19923;SDS011;10124;53.068;18.224;2022-11-27T00:16:25;161.40;;;71.50;;
19923;SDS011;10124;53.068;18.224;2022-11-27T00:18:54;207.83;;;85.23;;
19923;SDS011;10124;53.068;18.224;2022-11-27T00:21:23;169.07;;;72.47;;
19923;SDS011;10124;53.068;18.224;2022-11-27T00:23:55;163.10;;;66.93;;
19923;SDS011;10124;53.068;18.224;2022-11-27T00:26:24;136.23;;;61.53;;
19923;SDS011;10124;53.068;18.224;2022-11-27T00:28:54;146.53;;;61.17;;
19923;SDS011;10124;53.068;18.224;2022-11-27T00:31:24;130.57;;;57.57;;
19923;SDS011;10124;53.068;18.224;2022-11-27T00:33:56;160.40;;;66.70;;
19923;SDS011;10124;53.068;18.224;2022-11-27T00:36:29;134.23;;;61.33;;
19923;SDS011;10124;53.068;18.224;2022-11-27T00:38:58;127.10;;;57.63;;
19923;SDS011;10124;53.068;18.224;2022-11-27T00:41:28;166.63;;;68.07;;
19923;SDS011;10124;53.068;18.224;2022-11-27T00:43:57;153.47;;;66.37;;
19923;SDS011;10124;53.068;18.224;2022-11-27T00:46:26;144.33;;;62.63;;
19923;SDS011;10124;53.068;18.224;2022-11-27T00:48:56;166.23;;;68.43;;
19923;SDS011;10124;53.068;18.224;2022-11-27T00:51:25;160.37;;;68.60;;
19923;SDS011;10124;53.068;18.224;2022-11-27T00:53:54;161.40;;;67.73;;
19923;SDS011;10124;53.068;18.224;2022-11-27T00:56:24;167.90;;;71.07;;
19923;SDS011;10124;53.068;18.224;2022-11-27T00:58:53;170.10;;;70.63;;
19923;SDS011;10124;53.068;18.224;2022-11-27T01:01:25;138.50;;;64.07;;
19923;SDS011;10124;53.068;18.224;2022-11-27T01:03:59;178.27;;;71.93;;
19923;SDS011;10124;53.068;18.224;2022-11-27T01:06:27;145.70;;;65.10;;
19923;SDS011;10124;53.068;18.224;2022-11-27T01:08:56;150.73;;;66.87;;
19923;SDS011;10124;53.068;18.224;2022-11-27T01:11:26;129.50;;;59.27;;
19923;SDS011;10124;53.068;18.224;2022-11-27T01:13:58;149.10;;;65.37;;
19923;SDS011;10124;53.068;18.224;2022-11-27T01:16:29;150.73;;;65.40;;
19923;SDS011;10124;53.068;18.224;2022-11-27T01:18:58;129.40;;;57.60;;
19923;SDS011;10124;53.068;18.224;2022-11-27T01:21:28;130.43;;;58.17;;
19923;SDS011;10124;53.068;18.224;2022-11-27T01:23:58;129.27;;;58.00;;
19923;SDS011;10124;53.068;18.224;2022-11-27T01:26:27;147.00;;;62.20;;
19923;SDS011;10124;53.068;18.224;2022-11-27T01:28:55;127.90;;;56.80;;
19923;SDS011;10124;53.068;18.224;2022-11-27T01:31:25;139.87;;;61.93;;
19923;SDS011;10124;53.068;18.224;2022-11-27T01:33:56;142.27;;;58.90;;
19923;SDS011;10124;53.068;18.224;2022-11-27T01:36:26;129.57;;;59.53;;
19923;SDS011;10124;53.068;18.224;2022-11-27T01:38:55;124.27;;;56.60;;
19923;SDS011;10124;53.068;18.224;2022-11-27T01:41:27;147.13;;;65.50;;
19923;SDS011;10124;53.068;18.224;2022-11-27T01:43:58;120.27;;;54.20;;
19923;SDS011;10124;53.068;18.224;2022-11-27T01:51:29;134.30;;;58.90;;
19923;SDS011;10124;53.068;18.224;2022-11-27T01:53:58;121.13;;;54.03;;
19923;SDS011;10124;53.068;18.224;2022-11-27T01:56:26;131.10;;;59.33;;
19923;SDS011;10124;53.068;18.224;2022-11-27T01:58:55;113.27;;;56.00;;
19923;SDS011;10124;53.068;18.224;2022-11-27T02:01:24;137.83;;;59.40;;
19923;SDS011;10124;53.068;18.224;2022-11-27T02:03:53;155.53;;;60.87;;
19923;SDS011;10124;53.068;18.224;2022-11-27T02:06:23;118.57;;;55.60;;
19923;SDS011;10124;53.068;18.224;2022-11-27T02:08:52;126.17;;;57.33;;
19923;SDS011;10124;53.068;18.224;2022-11-27T02:11:42;134.13;;;58.07;;
19923;SDS011;10124;53.068;18.224;2022-11-27T02:14:31;145.77;;;60.57;;
19923;SDS011;10124;53.068;18.224;2022-11-27T02:20:18;134.47;;;58.27;;
19923;SDS011;10124;53.068;18.224;2022-11-27T02:31:39;133.57;;;56.77;;
19923;SDS011;10124;53.068;18.224;2022-11-27T02:37:12;157.80;;;60.90;;
19923;SDS011;10124;53.068;18.224;2022-11-27T02:39:57;141.17;;;58.33;;
19923;SDS011;10124;53.068;18.224;2022-11-27T02:42:35;165.10;;;66.03;;
19923;SDS011;10124;53.068;18.224;2022-11-27T02:45:08;132.83;;;58.67;;
19923;SDS011;10124;53.068;18.224;2022-11-27T02:47:40;130.57;;;56.50;;
19923;SDS011;10124;53.068;18.224;2022-11-27T02:50:11;147.97;;;60.63;;
19923;SDS011;10124;53.068;18.224;2022-11-27T02:52:43;145.20;;;57.67;;
19923;SDS011;10124;53.068;18.224;2022-11-27T02:55:13;148.40;;;59.77;;
19923;SDS011;10124;53.068;18.224;2022-11-27T02:57:45;157.17;;;61.40;;
19923;SDS011;10124;53.068;18.224;2022-11-27T03:00:13;140.80;;;59.07;;
19923;SDS011;10124;53.068;18.224;2022-11-27T03:02:42;130.57;;;57.23;;
19923;SDS011;10124;53.068;18.224;2022-11-27T03:05:16;139.90;;;59.53;;
19923;SDS011;10124;53.068;18.224;2022-11-27T03:07:51;127.87;;;57.60;;
19923;SDS011;10124;53.068;18.224;2022-11-27T03:10:31;130.57;;;55.47;;
19923;SDS011;10124;53.068;18.224;2022-11-27T03:13:09;120.77;;;52.23;;
19923;SDS011;10124;53.068;18.224;2022-11-27T03:15:44;111.77;;;52.47;;
19923;SDS011;10124;53.068;18.224;2022-11-27T03:18:29;109.50;;;51.47;;
19923;SDS011;10124;53.068;18.224;2022-11-27T03:21:02;117.30;;;53.50;;
19923;SDS011;10124;53.068;18.224;2022-11-27T03:23:39;123.73;;;54.10;;
19923;SDS011;10124;53.068;18.224;2022-11-27T03:26:06;132.23;;;57.27;;
19923;SDS011;10124;53.068;18.224;2022-11-27T03:28:34;121.57;;;52.77;;
19923;SDS011;10124;53.068;18.224;2022-11-27T03:31:06;119.10;;;54.30;;
19923;SDS011;10124;53.068;18.224;2022-11-27T03:33:34;146.07;;;61.30;;
19923;SDS011;10124;53.068;18.224;2022-11-27T03:36:08;155.13;;;62.93;;
19923;SDS011;10124;53.068;18.224;2022-11-27T03:38:41;147.50;;;59.67;;
19923;SDS011;10124;53.068;18.224;2022-11-27T03:41:23;142.07;;;58.40;;
19923;SDS011;10124;53.068;18.224;2022-11-27T03:44:21;131.40;;;57.27;;
19923;SDS011;10124;53.068;18.224;2022-11-27T03:53:06;151.37;;;61.60;;
19923;SDS011;10124;53.068;18.224;2022-11-27T03:56:05;138.20;;;55.00;;
19923;SDS011;10124;53.068;18.224;2022-11-27T03:58:43;131.57;;;57.87;;
19923;SDS011;10124;53.068;18.224;2022-11-27T04:01:14;142.47;;;58.87;;
19923;SDS011;10124;53.068;18.224;2022-11-27T04:03:45;141.17;;;58.73;;
19923;SDS011;10124;53.068;18.224;2022-11-27T04:06:13;157.80;;;62.50;;
19923;SDS011;10124;53.068;18.224;2022-11-27T04:08:41;135.47;;;57.67;;
19923;SDS011;10124;53.068;18.224;2022-11-27T04:11:09;146.77;;;59.90;;
19923;SDS011;10124;53.068;18.224;2022-11-27T04:13:37;140.83;;;57.70;;
19923;SDS011;10124;53.068;18.224;2022-11-27T04:16:05;125.73;;;54.03;;
19923;SDS011;10124;53.068;18.224;2022-11-27T04:18:33;145.13;;;57.00;;
19923;SDS011;10124;53.068;18.224;2022-11-27T04:21:01;121.80;;;54.00;;
19923;SDS011;10124;53.068;18.224;2022-11-27T04:23:30;132.37;;;56.80;;
19923;SDS011;10124;53.068;18.224;2022-11-27T04:25:57;144.70;;;54.23;;
19923;SDS011;10124;53.068;18.224;2022-11-27T04:28:25;142.87;;;58.50;;
19923;SDS011;10124;53.068;18.224;2022-11-27T04:30:52;147.10;;;56.43;;
19923;SDS011;10124;53.068;18.224;2022-11-27T04:33:21;125.47;;;55.37;;
19923;SDS011;10124;53.068;18.224;2022-11-27T04:35:49;146.77;;;60.13;;
19923;SDS011;10124;53.068;18.224;2022-11-27T04:38:17;122.23;;;54.70;;
19923;SDS011;10124;53.068;18.224;2022-11-27T04:40:46;137.30;;;56.97;;
19923;SDS011;10124;53.068;18.224;2022-11-27T04:43:13;136.33;;;55.40;;
19923;SDS011;10124;53.068;18.224;2022-11-27T04:45:41;122.73;;;53.53;;
19923;SDS011;10124;53.068;18.224;2022-11-27T04:48:10;150.17;;;58.67;;
19923;SDS011;10124;53.068;18.224;2022-11-27T04:50:38;118.87;;;51.87;;
19923;SDS011;10124;53.068;18.224;2022-11-27T04:53:05;155.90;;;60.90;;
19923;SDS011;10124;53.068;18.224;2022-11-27T04:55:33;124.17;;;52.70;;
19923;SDS011;10124;53.068;18.224;2022-11-27T04:58:04;119.27;;;54.20;;
19923;SDS011;10124;53.068;18.224;2022-11-27T05:00:32;115.83;;;52.37;;
19923;SDS011;10124;53.068;18.224;2022-11-27T05:02:59;139.73;;;58.00;;
19923;SDS011;10124;53.068;18.224;2022-11-27T05:05:27;136.50;;;56.27;;
19923;SDS011;10124;53.068;18.224;2022-11-27T05:07:55;142.53;;;56.40;;
19923;SDS011;10124;53.068;18.224;2022-11-27T05:10:23;128.87;;;54.50;;
19923;SDS011;10124;53.068;18.224;2022-11-27T05:12:51;176.47;;;62.97;;
19923;SDS011;10124;53.068;18.224;2022-11-27T05:15:18;138.73;;;54.53;;
19923;SDS011;10124;53.068;18.224;2022-11-27T05:17:46;130.33;;;56.63;;
19923;SDS011;10124;53.068;18.224;2022-11-27T05:20:14;129.47;;;52.10;;
19923;SDS011;10124;53.068;18.224;2022-11-27T05:22:41;147.03;;;56.43;;
19923;SDS011;10124;53.068;18.224;2022-11-27T05:25:10;183.77;;;65.57;;
19923;SDS011;10124;53.068;18.224;2022-11-27T05:27:38;157.47;;;57.13;;
19923;SDS011;10124;53.068;18.224;2022-11-27T05:30:06;172.97;;;60.57;;
19923;SDS011;10124;53.068;18.224;2022-11-27T05:32:34;184.37;;;68.30;;
19923;SDS011;10124;53.068;18.224;2022-11-27T05:35:02;195.83;;;67.10;;
19923;SDS011;10124;53.068;18.224;2022-11-27T05:37:30;180.70;;;63.27;;
19923;SDS011;10124;53.068;18.224;2022-11-27T05:39:58;158.80;;;64.03;;
19923;SDS011;10124;53.068;18.224;2022-11-27T05:42:25;169.23;;;62.53;;
19923;SDS011;10124;53.068;18.224;2022-11-27T05:44:53;150.10;;;59.57;;
19923;SDS011;10124;53.068;18.224;2022-11-27T05:47:24;166.47;;;59.07;;
19923;SDS011;10124;53.068;18.224;2022-11-27T05:49:52;179.73;;;63.97;;
19923;SDS011;10124;53.068;18.224;2022-11-27T05:52:19;146.13;;;57.27;;
19923;SDS011;10124;53.068;18.224;2022-11-27T05:54:47;136.53;;;54.77;;
19923;SDS011;10124;53.068;18.224;2022-11-27T05:57:15;168.73;;;62.10;;
19923;SDS011;10124;53.068;18.224;2022-11-27T05:59:42;158.63;;;59.63;;
19923;SDS011;10124;53.068;18.224;2022-11-27T06:02:10;169.27;;;65.00;;
19923;SDS011;10124;53.068;18.224;2022-11-27T06:04:46;170.13;;;61.00;;
19923;SDS011;10124;53.068;18.224;2022-11-27T06:07:14;195.47;;;67.47;;
19923;SDS011;10124;53.068;18.224;2022-11-27T06:09:42;216.20;;;65.63;;
19923;SDS011;10124;53.068;18.224;2022-11-27T06:12:09;165.97;;;62.50;;
19923;SDS011;10124;53.068;18.224;2022-11-27T06:14:38;146.97;;;58.30;;
19923;SDS011;10124;53.068;18.224;2022-11-27T06:17:07;154.50;;;60.00;;
19923;SDS011;10124;53.068;18.224;2022-11-27T06:19:36;172.10;;;58.90;;
19923;SDS011;10124;53.068;18.224;2022-11-27T06:22:03;150.37;;;57.67;;
19923;SDS011;10124;53.068;18.224;2022-11-27T06:24:31;128.13;;;52.43;;
19923;SDS011;10124;53.068;18.224;2022-11-27T06:26:59;186.60;;;66.07;;
19923;SDS011;10124;53.068;18.224;2022-11-27T06:29:27;167.73;;;60.37;;
19923;SDS011;10124;53.068;18.224;2022-11-27T06:31:54;163.70;;;61.23;;
19923;SDS011;10124;53.068;18.224;2022-11-27T06:34:22;133.43;;;53.30;;
19923;SDS011;10124;53.068;18.224;2022-11-27T06:36:49;135.23;;;52.67;;
19923;SDS011;10124;53.068;18.224;2022-11-27T06:39:17;144.50;;;56.23;;
19923;SDS011;10124;53.068;18.224;2022-11-27T06:41:45;128.43;;;50.43;;
19923;SDS011;10124;53.068;18.224;2022-11-27T06:44:13;145.93;;;57.97;;
19923;SDS011;10124;53.068;18.224;2022-11-27T06:46:40;141.93;;;54.97;;
19923;SDS011;10124;53.068;18.224;2022-11-27T06:49:08;147.70;;;58.17;;
19923;SDS011;10124;53.068;18.224;2022-11-27T06:51:36;175.60;;;61.40;;
19923;SDS011;10124;53.068;18.224;2022-11-27T06:54:04;149.47;;;54.20;;
19923;SDS011;10124;53.068;18.224;2022-11-27T06:56:32;129.93;;;52.67;;
19923;SDS011;10124;53.068;18.224;2022-11-27T06:59:02;128.17;;;51.73;;
19923;SDS011;10124;53.068;18.224;2022-11-27T07:01:30;129.90;;;51.67;;
19923;SDS011;10124;53.068;18.224;2022-11-27T07:03:58;160.90;;;55.37;;
19923;SDS011;10124;53.068;18.224;2022-11-27T07:06:26;116.87;;;47.27;;
19923;SDS011;10124;53.068;18.224;2022-11-27T07:08:54;111.07;;;48.10;;
19923;SDS011;10124;53.068;18.224;2022-11-27T07:11:23;103.00;;;46.27;;
19923;SDS011;10124;53.068;18.224;2022-11-27T07:13:53;110.00;;;49.17;;
19923;SDS011;10124;53.068;18.224;2022-11-27T07:16:23;98.23;;;45.23;;
19923;SDS011;10124;53.068;18.224;2022-11-27T07:18:53;97.03;;;43.57;;
19923;SDS011;10124;53.068;18.224;2022-11-27T07:21:23;110.83;;;47.23;;
19923;SDS011;10124;53.068;18.224;2022-11-27T07:23:51;106.23;;;46.10;;
19923;SDS011;10124;53.068;18.224;2022-11-27T07:26:20;104.70;;;45.13;;
19923;SDS011;10124;53.068;18.224;2022-11-27T07:28:49;131.40;;;59.47;;
19923;SDS011;10124;53.068;18.224;2022-11-27T07:31:19;127.97;;;60.07;;
19923;SDS011;10124;53.068;18.224;2022-11-27T07:33:49;173.47;;;70.20;;
19923;SDS011;10124;53.068;18.224;2022-11-27T07:36:19;159.03;;;76.93;;
19923;SDS011;10124;53.068;18.224;2022-11-27T07:38:53;143.83;;;68.77;;
19923;SDS011;10124;53.068;18.224;2022-11-27T07:41:20;113.17;;;56.27;;
19923;SDS011;10124;53.068;18.224;2022-11-27T07:43:48;136.03;;;64.90;;
19923;SDS011;10124;53.068;18.224;2022-11-27T07:46:20;130.30;;;67.73;;
19923;SDS011;10124;53.068;18.224;2022-11-27T07:48:50;141.57;;;70.27;;
19923;SDS011;10124;53.068;18.224;2022-11-27T07:51:18;192.33;;;88.30;;
19923;SDS011;10124;53.068;18.224;2022-11-27T07:53:47;200.17;;;93.73;;
19923;SDS011;10124;53.068;18.224;2022-11-27T07:56:17;194.47;;;91.77;;
19923;SDS011;10124;53.068;18.224;2022-11-27T07:58:46;169.70;;;85.50;;
19923;SDS011;10124;53.068;18.224;2022-11-27T08:01:15;165.60;;;80.73;;
19923;SDS011;10124;53.068;18.224;2022-11-27T08:03:45;126.17;;;64.97;;
19923;SDS011;10124;53.068;18.224;2022-11-27T08:06:23;155.80;;;69.77;;
19923;SDS011;10124;53.068;18.224;2022-11-27T08:08:52;91.30;;;45.70;;
19923;SDS011;10124;53.068;18.224;2022-11-27T08:11:28;94.80;;;44.37;;
19923;SDS011;10124;53.068;18.224;2022-11-27T08:13:59;82.43;;;40.53;;
19923;SDS011;10124;53.068;18.224;2022-11-27T08:16:31;77.63;;;37.93;;
19923;SDS011;10124;53.068;18.224;2022-11-27T08:19:00;78.00;;;38.10;;
19923;SDS011;10124;53.068;18.224;2022-11-27T08:21:28;80.33;;;37.77;;
19923;SDS011;10124;53.068;18.224;2022-11-27T08:23:58;76.00;;;36.70;;
19923;SDS011;10124;53.068;18.224;2022-11-27T08:26:26;73.10;;;36.33;;
19923;SDS011;10124;53.068;18.224;2022-11-27T08:28:55;68.87;;;34.20;;
19923;SDS011;10124;53.068;18.224;2022-11-27T08:31:24;68.77;;;34.50;;
19923;SDS011;10124;53.068;18.224;2022-11-27T08:33:52;70.80;;;32.87;;
19923;SDS011;10124;53.068;18.224;2022-11-27T08:36:20;67.03;;;34.10;;
19923;SDS011;10124;53.068;18.224;2022-11-27T08:38:49;65.07;;;32.63;;
19923;SDS011;10124;53.068;18.224;2022-11-27T08:41:17;64.83;;;32.60;;
19923;SDS011;10124;53.068;18.224;2022-11-27T08:43:45;68.37;;;33.40;;
19923;SDS011;10124;53.068;18.224;2022-11-27T08:46:14;65.53;;;31.67;;
19923;SDS011;10124;53.068;18.224;2022-11-27T08:48:43;72.03;;;33.40;;
19923;SDS011;10124;53.068;18.224;2022-11-27T08:51:13;66.03;;;32.70;;
19923;SDS011;10124;53.068;18.224;2022-11-27T08:53:42;74.87;;;35.53;;
19923;SDS011;10124;53.068;18.224;2022-11-27T08:56:15;79.53;;;36.93;;
19923;SDS011;10124;53.068;18.224;2022-11-27T08:58:45;74.73;;;35.53;;
19923;SDS011;10124;53.068;18.224;2022-11-27T09:03:43;68.10;;;32.57;;
19923;SDS011;10124;53.068;18.224;2022-11-27T09:06:12;69.60;;;32.83;;
19923;SDS011;10124;53.068;18.224;2022-11-27T09:08:43;62.33;;;30.10;;
19923;SDS011;10124;53.068;18.224;2022-11-27T09:11:12;63.43;;;33.10;;
19923;SDS011;10124;53.068;18.224;2022-11-27T09:13:42;70.27;;;32.60;;
19923;SDS011;10124;53.068;18.224;2022-11-27T09:16:11;59.40;;;30.33;;
19923;SDS011;10124;53.068;18.224;2022-11-27T09:18:45;61.87;;;29.47;;
19923;SDS011;10124;53.068;18.224;2022-11-27T09:21:14;58.33;;;30.00;;
19923;SDS011;10124;53.068;18.224;2022-11-27T09:23:47;59.73;;;28.43;;
19923;SDS011;10124;53.068;18.224;2022-11-27T09:26:18;54.23;;;25.17;;
19923;SDS011;10124;53.068;18.224;2022-11-27T09:28:47;61.17;;;30.97;;
19923;SDS011;10124;53.068;18.224;2022-11-27T09:31:14;54.33;;;27.73;;
19923;SDS011;10124;53.068;18.224;2022-11-27T09:33:44;53.60;;;27.60;;
19923;SDS011;10124;53.068;18.224;2022-11-27T09:36:18;48.10;;;26.07;;
19923;SDS011;10124;53.068;18.224;2022-11-27T09:38:47;46.53;;;24.70;;
19923;SDS011;10124;53.068;18.224;2022-11-27T09:41:25;58.93;;;29.90;;
19923;SDS011;10124;53.068;18.224;2022-11-27T09:46:53;58.50;;;27.77;;
19923;SDS011;10124;53.068;18.224;2022-11-27T09:49:25;54.83;;;28.57;;
19923;SDS011;10124;53.068;18.224;2022-11-27T09:52:01;56.83;;;27.43;;
19923;SDS011;10124;53.068;18.224;2022-11-27T09:54:54;61.43;;;28.67;;
19923;SDS011;10124;53.068;18.224;2022-11-27T09:57:33;56.47;;;29.80;;
19923;SDS011;10124;53.068;18.224;2022-11-27T10:00:16;56.20;;;28.20;;
19923;SDS011;10124;53.068;18.224;2022-11-27T10:02:45;56.83;;;28.40;;
19923;SDS011;10124;53.068;18.224;2022-11-27T10:05:25;52.93;;;27.57;;
19923;SDS011;10124;53.068;18.224;2022-11-27T10:08:12;70.03;;;30.27;;
19923;SDS011;10124;53.068;18.224;2022-11-27T10:10:47;60.50;;;28.93;;
19923;SDS011;10124;53.068;18.224;2022-11-27T10:16:04;65.07;;;31.20;;
19923;SDS011;10124;53.068;18.224;2022-11-27T10:18:45;59.57;;;29.87;;
19923;SDS011;10124;53.068;18.224;2022-11-27T10:21:26;56.30;;;29.50;;
19923;SDS011;10124;53.068;18.224;2022-11-27T10:26:51;58.57;;;28.23;;
19923;SDS011;10124;53.068;18.224;2022-11-27T10:29:28;49.77;;;27.10;;
19923;SDS011;10124;53.068;18.224;2022-11-27T10:32:16;64.90;;;29.20;;
19923;SDS011;10124;53.068;18.224;2022-11-27T10:35:11;57.97;;;29.30;;
19923;SDS011;10124;53.068;18.224;2022-11-27T10:37:47;50.97;;;27.33;;
19923;SDS011;10124;53.068;18.224;2022-11-27T10:40:21;56.53;;;28.20;;
19923;SDS011;10124;53.068;18.224;2022-11-27T10:43:12;50.43;;;25.67;;
19923;SDS011;10124;53.068;18.224;2022-11-27T10:48:35;51.27;;;27.53;;
19923;SDS011;10124;53.068;18.224;2022-11-27T10:51:09;50.27;;;26.37;;
19923;SDS011;10124;53.068;18.224;2022-11-27T10:53:45;46.63;;;25.43;;
19923;SDS011;10124;53.068;18.224;2022-11-27T10:58:56;49.23;;;25.30;;
19923;SDS011;10124;53.068;18.224;2022-11-27T11:01:41;53.03;;;26.40;;
19923;SDS011;10124;53.068;18.224;2022-11-27T11:04:21;54.73;;;28.07;;
19923;SDS011;10124;53.068;18.224;2022-11-27T11:07:23;51.33;;;27.53;;
19923;SDS011;10124;53.068;18.224;2022-11-27T11:09:53;55.43;;;27.97;;
19923;SDS011;10124;53.068;18.224;2022-11-27T11:12:22;53.03;;;26.83;;
19923;SDS011;10124;53.068;18.224;2022-11-27T11:14:51;57.63;;;28.13;;
19923;SDS011;10124;53.068;18.224;2022-11-27T11:17:32;55.83;;;25.57;;
19923;SDS011;10124;53.068;18.224;2022-11-27T11:20:12;60.40;;;29.10;;
19923;SDS011;10124;53.068;18.224;2022-11-27T11:22:45;53.80;;;26.90;;
19923;SDS011;10124;53.068;18.224;2022-11-27T11:25:18;49.07;;;25.63;;
19923;SDS011;10124;53.068;18.224;2022-11-27T11:27:48;51.97;;;26.60;;
19923;SDS011;10124;53.068;18.224;2022-11-27T11:30:22;55.80;;;27.57;;
19923;SDS011;10124;53.068;18.224;2022-11-27T11:32:58;48.87;;;26.17;;
19923;SDS011;10124;53.068;18.224;2022-11-27T11:35:28;52.20;;;28.43;;
19923;SDS011;10124;53.068;18.224;2022-11-27T11:38:04;53.43;;;26.53;;
19923;SDS011;10124;53.068;18.224;2022-11-27T11:40:42;48.63;;;24.70;;
19923;SDS011;10124;53.068;18.224;2022-11-27T11:43:25;51.90;;;26.10;;
19923;SDS011;10124;53.068;18.224;2022-11-27T11:46:02;50.67;;;24.43;;
19923;SDS011;10124;53.068;18.224;2022-11-27T11:48:54;52.57;;;26.47;;
19923;SDS011;10124;53.068;18.224;2022-11-27T11:51:28;52.13;;;25.67;;
19923;SDS011;10124;53.068;18.224;2022-11-27T11:54:19;50.10;;;24.67;;
19923;SDS011;10124;53.068;18.224;2022-11-27T11:56:54;46.97;;;24.47;;
19923;SDS011;10124;53.068;18.224;2022-11-27T12:13:31;53.77;;;25.33;;
19923;SDS011;10124;53.068;18.224;2022-11-27T12:21:17;62.90;;;29.70;;
19923;SDS011;10124;53.068;18.224;2022-11-27T12:29:15;65.87;;;31.57;;
19923;SDS011;10124;53.068;18.224;2022-11-27T12:35:03;67.70;;;32.03;;
19923;SDS011;10124;53.068;18.224;2022-11-27T12:37:51;64.70;;;30.33;;
19923;SDS011;10124;53.068;18.224;2022-11-27T12:42:58;56.80;;;28.60;;
19923;SDS011;10124;53.068;18.224;2022-11-27T12:45:34;61.93;;;29.90;;
19923;SDS011;10124;53.068;18.224;2022-11-27T12:48:14;72.97;;;29.70;;
19923;SDS011;10124;53.068;18.224;2022-11-27T12:50:51;62.57;;;30.73;;
19923;SDS011;10124;53.068;18.224;2022-11-27T12:56:25;68.70;;;31.77;;
19923;SDS011;10124;53.068;18.224;2022-11-27T12:59:15;62.83;;;30.20;;
19923;SDS011;10124;53.068;18.224;2022-11-27T13:07:47;64.10;;;29.33;;
19923;SDS011;10124;53.068;18.224;2022-11-27T13:10:37;63.40;;;29.97;;
19923;SDS011;10124;53.068;18.224;2022-11-27T13:13:34;70.33;;;31.73;;
19923;SDS011;10124;53.068;18.224;2022-11-27T13:16:35;64.50;;;29.30;;
19923;SDS011;10124;53.068;18.224;2022-11-27T13:19:23;84.07;;;35.90;;
19923;SDS011;10124;53.068;18.224;2022-11-27T13:22:05;72.37;;;34.30;;
19923;SDS011;10124;53.068;18.224;2022-11-27T13:24:38;74.97;;;32.37;;
19923;SDS011;10124;53.068;18.224;2022-11-27T13:27:08;96.90;;;38.70;;
19923;SDS011;10124;53.068;18.224;2022-11-27T13:29:51;83.17;;;34.80;;
19923;SDS011;10124;53.068;18.224;2022-11-27T13:32:32;69.13;;;31.67;;
19923;SDS011;10124;53.068;18.224;2022-11-27T13:35:21;68.70;;;33.47;;
19923;SDS011;10124;53.068;18.224;2022-11-27T13:40:49;77.77;;;35.77;;
19923;SDS011;10124;53.068;18.224;2022-11-27T13:45:59;83.53;;;37.10;;
19923;SDS011;10124;53.068;18.224;2022-11-27T13:48:33;77.57;;;39.20;;
19923;SDS011;10124;53.068;18.224;2022-11-27T13:51:29;100.80;;;42.30;;
19923;SDS011;10124;53.068;18.224;2022-11-27T13:54:18;122.87;;;50.67;;
19923;SDS011;10124;53.068;18.224;2022-11-27T13:56:56;108.93;;;47.33;;
19923;SDS011;10124;53.068;18.224;2022-11-27T13:59:36;102.63;;;47.50;;
19923;SDS011;10124;53.068;18.224;2022-11-27T14:02:06;105.60;;;46.10;;
19923;SDS011;10124;53.068;18.224;2022-11-27T14:04:45;111.20;;;46.03;;
19923;SDS011;10124;53.068;18.224;2022-11-27T14:07:22;113.80;;;44.30;;
19923;SDS011;10124;53.068;18.224;2022-11-27T14:10:05;87.73;;;39.33;;
19923;SDS011;10124;53.068;18.224;2022-11-27T14:12:40;91.73;;;36.13;;
19923;SDS011;10124;53.068;18.224;2022-11-27T14:15:23;90.07;;;39.17;;
19923;SDS011;10124;53.068;18.224;2022-11-27T14:18:06;85.53;;;36.67;;
19923;SDS011;10124;53.068;18.224;2022-11-27T14:20:48;79.30;;;37.17;;
19923;SDS011;10124;53.068;18.224;2022-11-27T14:23:33;90.50;;;39.00;;
19923;SDS011;10124;53.068;18.224;2022-11-27T14:26:18;74.87;;;35.30;;
19923;SDS011;10124;53.068;18.224;2022-11-27T14:28:48;92.43;;;37.97;;
19923;SDS011;10124;53.068;18.224;2022-11-27T14:31:30;103.50;;;36.07;;
19923;SDS011;10124;53.068;18.224;2022-11-27T14:34:01;80.17;;;37.80;;
19923;SDS011;10124;53.068;18.224;2022-11-27T14:36:53;91.83;;;39.13;;
19923;SDS011;10124;53.068;18.224;2022-11-27T14:39:32;82.40;;;36.40;;
19923;SDS011;10124;53.068;18.224;2022-11-27T14:42:03;91.07;;;36.10;;
19923;SDS011;10124;53.068;18.224;2022-11-27T14:44:32;83.73;;;36.13;;
19923;SDS011;10124;53.068;18.224;2022-11-27T14:47:01;79.10;;;34.57;;
19923;SDS011;10124;53.068;18.224;2022-11-27T14:49:34;76.77;;;33.60;;
19923;SDS011;10124;53.068;18.224;2022-11-27T14:52:03;80.57;;;32.20;;
19923;SDS011;10124;53.068;18.224;2022-11-27T14:54:35;77.23;;;32.53;;
19923;SDS011;10124;53.068;18.224;2022-11-27T14:57:05;91.77;;;33.17;;
19923;SDS011;10124;53.068;18.224;2022-11-27T14:59:40;88.87;;;33.40;;
19923;SDS011;10124;53.068;18.224;2022-11-27T15:04:44;108.77;;;41.50;;
19923;SDS011;10124;53.068;18.224;2022-11-27T15:07:16;224.13;;;86.57;;
19923;SDS011;10124;53.068;18.224;2022-11-27T15:09:50;172.50;;;61.67;;
19923;SDS011;10124;53.068;18.224;2022-11-27T15:17:36;90.07;;;36.87;;
19923;SDS011;10124;53.068;18.224;2022-11-27T15:20:13;88.33;;;35.33;;
19923;SDS011;10124;53.068;18.224;2022-11-27T15:23:00;79.43;;;32.27;;
19923;SDS011;10124;53.068;18.224;2022-11-27T15:25:42;92.40;;;35.23;;
19923;SDS011;10124;53.068;18.224;2022-11-27T15:30:50;97.17;;;36.83;;
19923;SDS011;10124;53.068;18.224;2022-11-27T15:38:46;88.07;;;36.50;;
19923;SDS011;10124;53.068;18.224;2022-11-27T15:41:29;104.60;;;37.30;;
19923;SDS011;10124;53.068;18.224;2022-11-27T15:43:59;99.47;;;38.03;;
19923;SDS011;10124;53.068;18.224;2022-11-27T15:46:32;100.00;;;37.70;;
19923;SDS011;10124;53.068;18.224;2022-11-27T15:49:02;85.50;;;33.17;;
19923;SDS011;10124;53.068;18.224;2022-11-27T15:51:30;99.13;;;39.00;;
19923;SDS011;10124;53.068;18.224;2022-11-27T15:53:58;100.67;;;38.87;;
19923;SDS011;10124;53.068;18.224;2022-11-27T15:56:26;86.23;;;34.77;;
19923;SDS011;10124;53.068;18.224;2022-11-27T15:58:54;90.60;;;35.73;;
19923;SDS011;10124;53.068;18.224;2022-11-27T16:01:22;91.63;;;37.87;;
19923;SDS011;10124;53.068;18.224;2022-11-27T16:03:50;96.70;;;40.50;;
19923;SDS011;10124;53.068;18.224;2022-11-27T16:06:19;120.27;;;54.97;;
19923;SDS011;10124;53.068;18.224;2022-11-27T16:08:53;190.90;;;83.67;;
19923;SDS011;10124;53.068;18.224;2022-11-27T16:11:22;241.73;;;108.23;;
19923;SDS011;10124;53.068;18.224;2022-11-27T16:13:50;155.83;;;68.27;;
19923;SDS011;10124;53.068;18.224;2022-11-27T16:16:18;115.10;;;49.00;;